Terminal Aerodrome Forecast
Issued by NWS

Home | Current Version | Previous Version | Text Only | Print | Product List | Glossary On
Versions: 1 2 3 4 5 6 7 8 9 10 11 12 13
454
FTUS45 KABQ 260530
TAFROW
TAF
KROW 260530Z 2606/2706 33017G27KT P6SM BKN110
     FM261200 35020G30KT P6SM SCT080
     FM261700 36008KT P6SM SKC
     FM262200 24015KT P6SM FEW070=

USA.gov is the U.S. government's official web portal to all federal, state and local government web resources and services.